sensor_id;sensor_type;location;lat;lon;timestamp;pressure;altitude;pressure_sealevel;temperature;humidity
51297;BME280;37380;45.186;9.792;2022-09-09T00:01:46;100649.25;;;20.65;100.00
51297;BME280;37380;45.186;9.792;2022-09-09T00:04:58;100606.84;;;20.58;100.00
51297;BME280;37380;45.186;9.792;2022-09-09T00:07:47;100642.84;;;20.93;100.00
51297;BME280;37380;45.186;9.792;2022-09-09T00:10:49;100637.56;;;20.90;100.00
51297;BME280;37380;45.186;9.792;2022-09-09T00:13:22;100607.84;;;20.38;100.00
51297;BME280;37380;45.186;9.792;2022-09-09T00:21:43;100649.34;;;20.52;100.00
51297;BME280;37380;45.186;9.792;2022-09-09T00:24:28;100610.59;;;20.21;100.00
51297;BME280;37380;45.186;9.792;2022-09-09T00:30:27;100630.75;;;20.57;100.00
51297;BME280;37380;45.186;9.792;2022-09-09T00:33:30;100640.25;;;20.86;100.00
51297;BME280;37380;45.186;9.792;2022-09-09T00:35:58;100614.66;;;20.75;100.00
51297;BME280;37380;45.186;9.792;2022-09-09T00:38:35;100615.44;;;20.90;100.00
51297;BME280;37380;45.186;9.792;2022-09-09T00:42:14;100632.09;;;21.07;100.00
51297;BME280;37380;45.186;9.792;2022-09-09T00:53:19;100616.38;;;20.86;100.00
51297;BME280;37380;45.186;9.792;2022-09-09T00:58:31;100600.56;;;20.69;100.00
51297;BME280;37380;45.186;9.792;2022-09-09T01:01:32;100620.84;;;20.76;100.00
51297;BME280;37380;45.186;9.792;2022-09-09T01:04:36;100626.97;;;20.83;100.00
51297;BME280;37380;45.186;9.792;2022-09-09T01:07:18;100615.44;;;20.85;100.00
51297;BME280;37380;45.186;9.792;2022-09-09T01:10:00;100621.69;;;20.81;100.00
51297;BME280;37380;45.186;9.792;2022-09-09T01:12:43;100557.41;;;20.42;100.00
51297;BME280;37380;45.186;9.792;2022-09-09T01:15:22;100560.91;;;20.44;100.00
51297;BME280;37380;45.186;9.792;2022-09-09T01:17:59;100618.22;;;20.74;100.00
51297;BME280;37380;45.186;9.792;2022-09-09T01:29:45;100575.91;;;20.54;100.00
51297;BME280;37380;45.186;9.792;2022-09-09T01:32:53;100560.91;;;20.46;100.00
51297;BME280;37380;45.186;9.792;2022-09-09T01:38:10;100582.09;;;20.53;100.00
51297;BME280;37380;45.186;9.792;2022-09-09T01:40:38;100522.25;;;20.09;100.00
51297;BME280;37380;45.186;9.792;2022-09-09T01:43:06;100602.41;;;20.59;100.00
51297;BME280;37380;45.186;9.792;2022-09-09T01:45:35;100564.53;;;20.34;100.00
51297;BME280;37380;45.186;9.792;2022-09-09T01:48:03;100578.66;;;20.39;100.00
51297;BME280;37380;45.186;9.792;2022-09-09T01:50:42;100549.47;;;20.39;100.00
51297;BME280;37380;45.186;9.792;2022-09-09T01:53:14;100607.72;;;20.56;100.00
51297;BME280;37380;45.186;9.792;2022-09-09T02:05:28;100606.06;;;20.41;100.00
51297;BME280;37380;45.186;9.792;2022-09-09T02:08:03;100615.72;;;20.53;100.00
51297;BME280;37380;45.186;9.792;2022-09-09T02:10:56;100600.81;;;20.33;100.00
51297;BME280;37380;45.186;9.792;2022-09-09T02:13:37;100625.47;;;20.48;100.00
51297;BME280;37380;45.186;9.792;2022-09-09T02:16:13;100617.50;;;20.49;100.00
51297;BME280;37380;45.186;9.792;2022-09-09T02:19:07;100608.63;;;20.52;100.00
51297;BME280;37380;45.186;9.792;2022-09-09T02:22:01;100578.88;;;20.08;100.00
51297;BME280;37380;45.186;9.792;2022-09-09T02:24:59;100579.75;;;20.09;100.00
51297;BME280;37380;45.186;9.792;2022-09-09T02:27:35;100607.06;;;20.19;100.00
51297;BME280;37380;45.186;9.792;2022-09-09T02:30:37;100624.78;;;20.20;100.00
51297;BME280;37380;45.186;9.792;2022-09-09T02:33:43;100552.38;;;20.01;100.00
51297;BME280;37380;45.186;9.792;2022-09-09T02:36:13;100612.22;;;20.46;100.00
51297;BME280;37380;45.186;9.792;2022-09-09T02:38:46;100621.09;;;20.42;100.00
51297;BME280;37380;45.186;9.792;2022-09-09T02:41:28;100621.94;;;20.49;100.00
51297;BME280;37380;45.186;9.792;2022-09-09T02:43:58;100615.72;;;20.51;100.00
51297;BME280;37380;45.186;9.792;2022-09-09T02:49:03;100619.31;;;20.41;100.00
51297;BME280;37380;45.186;9.792;2022-09-09T02:54:28;100610.56;;;20.27;100.00
51297;BME280;37380;45.186;9.792;2022-09-09T02:57:09;100572.75;;;19.99;100.00
51297;BME280;37380;45.186;9.792;2022-09-09T02:59:45;100578.81;;;20.15;100.00
51297;BME280;37380;45.186;9.792;2022-09-09T03:02:46;100570.97;;;19.99;100.00
51297;BME280;37380;45.186;9.792;2022-09-09T03:05:40;100589.47;;;20.08;100.00
51297;BME280;37380;45.186;9.792;2022-09-09T03:08:11;100515.47;;;19.62;100.00
51297;BME280;37380;45.186;9.792;2022-09-09T03:10:41;100583.38;;;19.91;100.00
51297;BME280;37380;45.186;9.792;2022-09-09T03:13:09;100555.19;;;19.75;100.00
51297;BME280;37380;45.186;9.792;2022-09-09T03:15:38;100556.09;;;19.74;100.00
51297;BME280;37380;45.186;9.792;2022-09-09T03:18:08;100541.06;;;19.76;100.00
51297;BME280;37380;45.186;9.792;2022-09-09T03:20:35;100596.50;;;20.12;100.00
51297;BME280;37380;45.186;9.792;2022-09-09T03:23:02;100593.84;;;20.16;100.00
51297;BME280;37380;45.186;9.792;2022-09-09T03:25:29;100570.09;;;19.97;100.00
51297;BME280;37380;45.186;9.792;2022-09-09T03:28:03;100577.13;;;20.04;100.00
51297;BME280;37380;45.186;9.792;2022-09-09T03:31:02;100593.81;;;20.19;100.00
51297;BME280;37380;45.186;9.792;2022-09-09T03:33:34;100596.47;;;20.19;100.00
51297;BME280;37380;45.186;9.792;2022-09-09T03:36:04;100594.72;;;20.18;100.00
51297;BME280;37380;45.186;9.792;2022-09-09T03:38:32;100567.44;;;19.99;100.00
51297;BME280;37380;45.186;9.792;2022-09-09T03:40:59;100552.41;;;19.99;100.00
51297;BME280;37380;45.186;9.792;2022-09-09T03:43:29;100483.72;;;19.49;100.00
51297;BME280;37380;45.186;9.792;2022-09-09T03:45:57;100498.72;;;19.51;100.00
51297;BME280;37380;45.186;9.792;2022-09-09T03:48:26;100568.34;;;19.93;100.00
51297;BME280;37380;45.186;9.792;2022-09-09T03:50:55;100552.47;;;19.88;100.00
51297;BME280;37380;45.186;9.792;2022-09-09T03:53:24;100577.97;;;20.06;100.00
51297;BME280;37380;45.186;9.792;2022-09-09T03:55:54;100573.69;;;19.90;100.00
51297;BME280;37380;45.186;9.792;2022-09-09T03:58:30;100555.16;;;19.82;100.00
51297;BME280;37380;45.186;9.792;2022-09-09T04:01:31;100532.25;;;19.71;100.00
51297;BME280;37380;45.186;9.792;2022-09-09T04:04:33;100536.59;;;19.81;100.00
51297;BME280;37380;45.186;9.792;2022-09-09T04:07:14;100503.97;;;19.60;100.00
51297;BME280;37380;45.186;9.792;2022-09-09T04:09:42;100474.88;;;19.53;100.00
51297;BME280;37380;45.186;9.792;2022-09-09T04:12:09;100526.00;;;19.78;100.00
51297;BME280;37380;45.186;9.792;2022-09-09T04:14:40;100546.25;;;19.96;100.00
51297;BME280;37380;45.186;9.792;2022-09-09T04:17:07;100533.00;;;19.91;100.00
51297;BME280;37380;45.186;9.792;2022-09-09T04:19:34;100547.00;;;20.11;100.00
51297;BME280;37380;45.186;9.792;2022-09-09T04:22:02;100504.78;;;19.78;100.00
51297;BME280;37380;45.186;9.792;2022-09-09T04:24:29;100553.22;;;20.09;100.00
51297;BME280;37380;45.186;9.792;2022-09-09T04:27:04;100522.34;;;20.00;100.00
51297;BME280;37380;45.186;9.792;2022-09-09T04:30:07;100520.63;;;19.93;100.00
51297;BME280;37380;45.186;9.792;2022-09-09T04:33:01;100480.16;;;19.56;100.00
51297;BME280;37380;45.186;9.792;2022-09-09T04:35:33;100503.91;;;19.80;100.00
51297;BME280;37380;45.186;9.792;2022-09-09T04:38:00;100532.19;;;19.81;100.00
51297;BME280;37380;45.186;9.792;2022-09-09T04:40:31;100473.13;;;19.53;100.00
51297;BME280;37380;45.186;9.792;2022-09-09T04:42:58;100529.44;;;19.95;100.00
51297;BME280;37380;45.186;9.792;2022-09-09T04:45:26;100532.03;;;20.07;100.00
51297;BME280;37380;45.186;9.792;2022-09-09T04:47:53;100484.50;;;19.72;100.00
51297;BME280;37380;45.186;9.792;2022-09-09T04:50:26;100555.91;;;20.07;100.00
51297;BME280;37380;45.186;9.792;2022-09-09T04:53:21;100527.66;;;19.97;100.00
51297;BME280;37380;45.186;9.792;2022-09-09T04:56:07;100584.97;;;20.23;100.00
51297;BME280;37380;45.186;9.792;2022-09-09T04:59:10;100517.94;;;19.96;100.00
51297;BME280;37380;45.186;9.792;2022-09-09T05:02:15;100524.16;;;19.94;100.00
51297;BME280;37380;45.186;9.792;2022-09-09T05:05:17;100570.72;;;20.33;100.00
51297;BME280;37380;45.186;9.792;2022-09-09T05:08:03;100586.47;;;20.59;100.00
51297;BME280;37380;45.186;9.792;2022-09-09T05:10:32;100611.19;;;20.67;100.00
51297;BME280;37380;45.186;9.792;2022-09-09T05:12:59;100605.03;;;20.64;100.00
51297;BME280;37380;45.186;9.792;2022-09-09T05:15:29;100581.88;;;20.79;100.00
51297;BME280;37380;45.186;9.792;2022-09-09T05:18:00;100588.75;;;21.03;100.00
51297;BME280;37380;45.186;9.792;2022-09-09T05:20:29;100590.38;;;21.14;100.00
51297;BME280;37380;45.186;9.792;2022-09-09T05:22:56;100590.47;;;21.08;100.00
51297;BME280;37380;45.186;9.792;2022-09-09T05:25:27;100542.28;;;20.55;100.00
51297;BME280;37380;45.186;9.792;2022-09-09T05:27:55;100558.00;;;20.78;100.00
51297;BME280;37380;45.186;9.792;2022-09-09T05:30:22;100583.53;;;20.94;100.00
51297;BME280;37380;45.186;9.792;2022-09-09T05:32:57;100605.25;;;21.33;100.00
51297;BME280;37380;45.186;9.792;2022-09-09T05:36:05;100616.53;;;21.57;100.00
51297;BME280;37380;45.186;9.792;2022-09-09T05:39:03;100606.88;;;21.46;100.00
51297;BME280;37380;45.186;9.792;2022-09-09T05:41:38;100624.69;;;21.41;100.00
51297;BME280;37380;45.186;9.792;2022-09-09T05:44:32;100632.53;;;21.52;100.00
51297;BME280;37380;45.186;9.792;2022-09-09T05:47:00;100625.66;;;21.28;100.00
51297;BME280;37380;45.186;9.792;2022-09-09T05:49:27;100617.13;;;20.98;100.00
51297;BME280;37380;45.186;9.792;2022-09-09T05:51:55;100602.91;;;21.02;100.00
51297;BME280;37380;45.186;9.792;2022-09-09T05:54:29;100590.47;;;21.09;100.00
51297;BME280;37380;45.186;9.792;2022-09-09T05:57:25;100568.88;;;21.41;100.00
51297;BME280;37380;45.186;9.792;2022-09-09T05:59:58;100598.66;;;21.68;100.00
51297;BME280;37380;45.186;9.792;2022-09-09T06:02:59;100588.72;;;21.82;100.00
51297;BME280;37380;45.186;9.792;2022-09-09T06:06:01;100622.22;;;21.97;100.00
51297;BME280;37380;45.186;9.792;2022-09-09T06:08:28;100615.81;;;22.12;100.00
51297;BME280;37380;45.186;9.792;2022-09-09T06:11:01;100646.53;;;22.36;100.00
51297;BME280;37380;45.186;9.792;2022-09-09T06:13:30;100601.06;;;21.86;100.00
51297;BME280;37380;45.186;9.792;2022-09-09T06:16:04;100621.81;;;22.29;100.00
51297;BME280;37380;45.186;9.792;2022-09-09T06:18:59;100641.53;;;22.73;100.00
51297;BME280;37380;45.186;9.792;2022-09-09T06:21:33;100645.66;;;22.34;100.00
51297;BME280;37380;45.186;9.792;2022-09-09T06:24:02;100634.97;;;22.38;100.00
51297;BME280;37380;45.186;9.792;2022-09-09T06:26:34;100656.31;;;22.91;100.00
51297;BME280;37380;45.186;9.792;2022-09-09T06:29:03;100660.53;;;23.06;100.00
51297;BME280;37380;45.186;9.792;2022-09-09T06:31:32;100656.31;;;22.91;100.00
51297;BME280;37380;45.186;9.792;2022-09-09T06:34:08;100651.25;;;22.74;100.00
51297;BME280;37380;45.186;9.792;2022-09-09T06:36:40;100599.78;;;22.75;100.00
51297;BME280;37380;45.186;9.792;2022-09-09T06:39:07;100644.84;;;23.39;100.00
51297;BME280;37380;45.186;9.792;2022-09-09T06:41:46;100655.34;;;22.98;100.00
51297;BME280;37380;45.186;9.792;2022-09-09T06:44:56;100627.19;;;22.80;100.00
51297;BME280;37380;45.186;9.792;2022-09-09T06:47:58;100626.81;;;23.03;100.00
51297;BME280;37380;45.186;9.792;2022-09-09T06:50:31;100638.38;;;23.04;100.00
51297;BME280;37380;45.186;9.792;2022-09-09T06:53:35;100646.50;;;22.96;100.00
51297;BME280;37380;45.186;9.792;2022-09-09T06:56:34;100638.03;;;22.68;100.00
51297;BME280;37380;45.186;9.792;2022-09-09T06:59:12;100635.53;;;22.59;100.00
51297;BME280;37380;45.186;9.792;2022-09-09T07:02:13;100634.19;;;21.61;100.00
51297;BME280;37380;45.186;9.792;2022-09-09T07:05:08;100651.69;;;21.80;100.00
51297;BME280;37380;45.186;9.792;2022-09-09T07:07:35;100647.03;;;21.96;100.00
51297;BME280;37380;45.186;9.792;2022-09-09T07:10:04;100671.44;;;22.32;100.00
51297;BME280;37380;45.186;9.792;2022-09-09T07:12:31;100641.63;;;22.04;100.00
51297;BME280;37380;45.186;9.792;2022-09-09T07:14:59;100670.22;;;21.88;100.00
51297;BME280;37380;45.186;9.792;2022-09-09T07:17:27;100682.59;;;22.57;100.00
51297;BME280;37380;45.186;9.792;2022-09-09T07:19:57;100626.13;;;22.36;100.00
51297;BME280;37380;45.186;9.792;2022-09-09T07:22:24;100667.66;;;22.48;100.00
51297;BME280;37380;45.186;9.792;2022-09-09T07:24:51;100614.00;;;22.17;100.00
51297;BME280;37380;45.186;9.792;2022-09-09T07:27:24;100673.16;;;22.36;100.00
51297;BME280;37380;45.186;9.792;2022-09-09T07:30:25;100691.78;;;22.37;100.00
51297;BME280;37380;45.186;9.792;2022-09-09T07:33:26;100613.19;;;22.07;100.00
51297;BME280;37380;45.186;9.792;2022-09-09T07:36:46;100649.00;;;21.83;100.00
51297;BME280;37380;45.186;9.792;2022-09-09T07:39:41;100666.06;;;21.65;100.00
51297;BME280;37380;45.186;9.792;2022-09-09T07:42:09;100681.13;;;21.63;100.00
51297;BME280;37380;45.186;9.792;2022-09-09T07:44:38;100644.75;;;21.70;100.00
51297;BME280;37380;45.186;9.792;2022-09-09T07:47:12;100660.03;;;22.25;100.00
51297;BME280;37380;45.186;9.792;2022-09-09T07:49:49;100688.44;;;22.83;100.00
51297;BME280;37380;45.186;9.792;2022-09-09T07:52:52;100673.81;;;23.09;100.00
51297;BME280;37380;45.186;9.792;2022-09-09T07:55:46;100656.13;;;23.05;100.00
51297;BME280;37380;45.186;9.792;2022-09-09T07:58:19;100660.94;;;23.79;100.00
51297;BME280;37380;45.186;9.792;2022-09-09T08:01:30;100705.28;;;24.30;100.00
51297;BME280;37380;45.186;9.792;2022-09-09T08:04:32;100703.06;;;23.62;100.00
51297;BME280;37380;45.186;9.792;2022-09-09T08:07:15;100717.19;;;23.68;100.00
51297;BME280;37380;45.186;9.792;2022-09-09T08:09:50;100700.09;;;23.31;100.00
51297;BME280;37380;45.186;9.792;2022-09-09T08:12:21;100702.78;;;22.75;100.00
51297;BME280;37380;45.186;9.792;2022-09-09T08:14:56;100694.88;;;23.24;100.00
51297;BME280;37380;45.186;9.792;2022-09-09T08:17:50;100724.66;;;23.48;100.00
51297;BME280;37380;45.186;9.792;2022-09-09T08:20:18;100713.63;;;23.18;100.00
51297;BME280;37380;45.186;9.792;2022-09-09T08:22:52;100706.16;;;21.47;100.00
51297;BME280;37380;45.186;9.792;2022-09-09T08:26:03;100742.06;;;20.86;100.00
51297;BME280;37380;45.186;9.792;2022-09-09T08:28:59;100722.69;;;20.69;100.00
51297;BME280;37380;45.186;9.792;2022-09-09T08:31:28;100722.38;;;21.09;100.00
51297;BME280;37380;45.186;9.792;2022-09-09T08:33:58;100703.13;;;20.82;100.00
51297;BME280;37380;45.186;9.792;2022-09-09T08:36:32;100754.97;;;21.37;100.00
51297;BME280;37380;45.186;9.792;2022-09-09T08:39:01;100753.22;;;22.19;100.00
51297;BME280;37380;45.186;9.792;2022-09-09T08:45:18;100756.94;;;22.03;100.00
51297;BME280;37380;45.186;9.792;2022-09-09T08:48:43;100758.69;;;22.05;100.00
51297;BME280;37380;45.186;9.792;2022-09-09T08:51:49;100704.28;;;21.52;100.00
51297;BME280;37380;45.186;9.792;2022-09-09T08:54:44;100763.16;;;22.03;100.00
51297;BME280;37380;45.186;9.792;2022-09-09T08:57:28;100756.00;;;22.07;100.00
51297;BME280;37380;45.186;9.792;2022-09-09T09:00:36;100766.84;;;21.91;100.00
51297;BME280;37380;45.186;9.792;2022-09-09T09:07:21;100754.22;;;22.09;100.00
51297;BME280;37380;45.186;9.792;2022-09-09T09:13:50;100767.78;;;23.22;100.00
51297;BME280;37380;45.186;9.792;2022-09-09T09:16:27;100774.34;;;23.54;100.00
51297;BME280;37380;45.186;9.792;2022-09-09T09:19:00;100706.22;;;22.20;100.00
51297;BME280;37380;45.186;9.792;2022-09-09T09:21:42;100757.75;;;22.79;100.00
51297;BME280;37380;45.186;9.792;2022-09-09T09:25:02;100736.72;;;23.69;100.00
51297;BME280;37380;45.186;9.792;2022-09-09T09:30:15;100725.50;;;24.40;94.77
51297;BME280;37380;45.186;9.792;2022-09-09T09:35:36;100751.78;;;23.22;100.00
51297;BME280;37380;45.186;9.792;2022-09-09T09:38:31;100745.50;;;23.76;99.94
51297;BME280;37380;45.186;9.792;2022-09-09T09:41:29;100772.34;;;24.14;98.27
51297;BME280;37380;45.186;9.792;2022-09-09T09:43:57;100774.91;;;24.19;96.15
51297;BME280;37380;45.186;9.792;2022-09-09T09:46:31;100702.38;;;23.52;98.18
51297;BME280;37380;45.186;9.792;2022-09-09T09:49:31;100760.53;;;24.26;95.46
51297;BME280;37380;45.186;9.792;2022-09-09T09:52:27;100765.34;;;24.07;97.34
51297;BME280;37380;45.186;9.792;2022-09-09T09:54:58;100746.88;;;24.40;93.24
51297;BME280;37380;45.186;9.792;2022-09-09T09:57:34;100720.44;;;24.28;94.11
51297;BME280;37380;45.186;9.792;2022-09-09T10:00:21;100755.69;;;24.47;94.26
51297;BME280;37380;45.186;9.792;2022-09-09T10:03:28;100724.03;;;25.04;91.75
51297;BME280;37380;45.186;9.792;2022-09-09T10:06:35;100697.41;;;25.37;88.33
51297;BME280;37380;45.186;9.792;2022-09-09T10:09:30;100735.72;;;25.70;86.45
51297;BME280;37380;45.186;9.792;2022-09-09T10:16:01;100711.28;;;25.17;91.46
51297;BME280;37380;45.186;9.792;2022-09-09T10:21:31;100707.41;;;25.94;91.27
51297;BME280;37380;45.186;9.792;2022-09-09T10:30:21;100723.59;;;26.80;81.32
51297;BME280;37380;45.186;9.792;2022-09-09T10:33:35;100677.13;;;25.60;84.53
51297;BME280;37380;45.186;9.792;2022-09-09T10:36:12;100716.50;;;26.20;84.05
51297;BME280;37380;45.186;9.792;2022-09-09T10:38:42;100690.94;;;26.10;85.47
51297;BME280;37380;45.186;9.792;2022-09-09T10:52:43;100707.00;;;26.10;89.69
51297;BME280;37380;45.186;9.792;2022-09-09T10:55:26;100666.63;;;25.86;86.31
51297;BME280;37380;45.186;9.792;2022-09-09T10:58:03;100658.38;;;24.94;90.84
51297;BME280;37380;45.186;9.792;2022-09-09T11:01:13;100701.28;;;25.91;90.16
51297;BME280;37380;45.186;9.792;2022-09-09T11:04:51;100701.22;;;26.81;85.67
51297;BME280;37380;45.186;9.792;2022-09-09T11:08:01;100700.88;;;26.05;87.06
51297;BME280;37380;45.186;9.792;2022-09-09T11:16:44;100690.38;;;26.84;83.99
51297;BME280;37380;45.186;9.792;2022-09-09T11:19:24;100679.44;;;26.34;84.17
51297;BME280;37380;45.186;9.792;2022-09-09T11:25:24;100687.47;;;26.92;84.91
51297;BME280;37380;45.186;9.792;2022-09-09T11:31:54;100650.63;;;26.42;86.54
51297;BME280;37380;45.186;9.792;2022-09-09T11:40:54;100599.41;;;27.31;78.78
51297;BME280;37380;45.186;9.792;2022-09-09T11:43:55;100662.78;;;26.82;82.66
51297;BME280;37380;45.186;9.792;2022-09-09T11:46:36;100647.56;;;25.97;86.92
51297;BME280;37380;45.186;9.792;2022-09-09T11:49:06;100664.59;;;26.54;83.02
51297;BME280;37380;45.186;9.792;2022-09-09T11:51:33;100644.03;;;27.07;82.16
51297;BME280;37380;45.186;9.792;2022-09-09T11:56:52;100637.72;;;26.55;90.37
51297;BME280;37380;45.186;9.792;2022-09-09T11:59:33;100664.50;;;27.10;81.62
51297;BME280;37380;45.186;9.792;2022-09-09T12:02:33;100590.41;;;26.82;82.38
51297;BME280;37380;45.186;9.792;2022-09-09T12:05:40;100615.59;;;27.28;83.10
51297;BME280;37380;45.186;9.792;2022-09-09T12:08:15;100651.28;;;27.81;77.80
51297;BME280;37380;45.186;9.792;2022-09-09T12:10:56;100645.88;;;27.57;82.33
51297;BME280;37380;45.186;9.792;2022-09-09T12:13:56;100628.16;;;27.76;79.23
51297;BME280;37380;45.186;9.792;2022-09-09T12:16:35;100625.69;;;27.47;81.20
51297;BME280;37380;45.186;9.792;2022-09-09T12:19:14;100651.31;;;26.77;80.36
51297;BME280;37380;45.186;9.792;2022-09-09T12:21:54;100630.81;;;27.03;80.00
51297;BME280;37380;45.186;9.792;2022-09-09T12:24:37;100612.53;;;26.61;80.67
51297;BME280;37380;45.186;9.792;2022-09-09T12:27:31;100640.09;;;26.64;81.96
51297;BME280;37380;45.186;9.792;2022-09-09T12:30:41;100631.63;;;26.22;81.22
51297;BME280;37380;45.186;9.792;2022-09-09T12:33:40;100584.97;;;26.29;80.12
51297;BME280;37380;45.186;9.792;2022-09-09T12:36:15;100621.53;;;26.60;81.09
51297;BME280;37380;45.186;9.792;2022-09-09T12:38:50;100616.59;;;26.99;82.45
51297;BME280;37380;45.186;9.792;2022-09-09T12:41:51;100622.16;;;27.20;81.01
51297;BME280;37380;45.186;9.792;2022-09-09T12:44:25;100615.25;;;27.63;81.58
51297;BME280;37380;45.186;9.792;2022-09-09T12:47:01;100607.84;;;27.69;82.72
51297;BME280;37380;45.186;9.792;2022-09-09T12:49:57;100610.31;;;27.99;77.01
51297;BME280;37380;45.186;9.792;2022-09-09T12:52:33;100583.97;;;27.62;77.28
51297;BME280;37380;45.186;9.792;2022-09-09T12:55:04;100601.34;;;27.51;78.54
51297;BME280;37380;45.186;9.792;2022-09-09T12:57:35;100571.69;;;27.31;78.29
51297;BME280;37380;45.186;9.792;2022-09-09T13:00:24;100584.22;;;26.54;80.09
51297;BME280;37380;45.186;9.792;2022-09-09T13:03:26;100601.66;;;26.92;80.64
51297;BME280;37380;45.186;9.792;2022-09-09T13:06:29;100588.47;;;27.61;83.68
51297;BME280;37380;45.186;9.792;2022-09-09T13:09:24;100536.06;;;27.74;79.65
51297;BME280;37380;45.186;9.792;2022-09-09T13:11:54;100585.03;;;28.27;78.63
51297;BME280;37380;45.186;9.792;2022-09-09T13:14:29;100579.50;;;28.53;75.05
51297;BME280;37380;45.186;9.792;2022-09-09T13:17:00;100581.06;;;28.37;77.15
51297;BME280;37380;45.186;9.792;2022-09-09T13:19:38;100561.34;;;28.14;73.09
51297;BME280;37380;45.186;9.792;2022-09-09T13:27:40;100568.44;;;26.96;75.91
51297;BME280;37380;45.186;9.792;2022-09-09T13:30:23;100528.25;;;27.21;74.06
51297;BME280;37380;45.186;9.792;2022-09-09T13:36:14;100528.94;;;27.01;76.39
51297;BME280;37380;45.186;9.792;2022-09-09T13:39:16;100552.34;;;26.96;76.13
51297;BME280;37380;45.186;9.792;2022-09-09T13:42:23;100526.53;;;26.69;77.07
51297;BME280;37380;45.186;9.792;2022-09-09T13:44:52;100527.47;;;26.93;76.36
51297;BME280;37380;45.186;9.792;2022-09-09T13:47:32;100540.81;;;27.44;76.63
51297;BME280;37380;45.186;9.792;2022-09-09T13:50:28;100539.69;;;27.26;74.94
51297;BME280;37380;45.186;9.792;2022-09-09T13:52:57;100531.94;;;26.92;76.11
51297;BME280;37380;45.186;9.792;2022-09-09T13:55:28;100536.06;;;27.27;77.36
51297;BME280;37380;45.186;9.792;2022-09-09T13:58:03;100534.47;;;26.97;75.57
51297;BME280;37380;45.186;9.792;2022-09-09T14:01:05;100504.75;;;27.03;75.38
51297;BME280;37380;45.186;9.792;2022-09-09T14:04:06;100451.81;;;27.08;78.71
51297;BME280;37380;45.186;9.792;2022-09-09T14:07:01;100494.16;;;27.70;76.38
51297;BME280;37380;45.186;9.792;2022-09-09T14:09:28;100470.22;;;27.19;73.63
51297;BME280;37380;45.186;9.792;2022-09-09T14:12:02;100503.28;;;27.19;74.90
51297;BME280;37380;45.186;9.792;2022-09-09T14:15:03;100502.09;;;27.03;74.42
51297;BME280;37380;45.186;9.792;2022-09-09T14:17:58;100498.69;;;26.98;74.21
51297;BME280;37380;45.186;9.792;2022-09-09T14:20:25;100450.66;;;26.92;72.75
51297;BME280;37380;45.186;9.792;2022-09-09T14:22:52;100523.00;;;27.18;73.97
51297;BME280;37380;45.186;9.792;2022-09-09T14:25:20;100518.13;;;27.29;73.50
51297;BME280;37380;45.186;9.792;2022-09-09T14:27:53;100495.44;;;27.38;73.28
51297;BME280;37380;45.186;9.792;2022-09-09T14:30:47;100494.03;;;26.78;73.81
51297;BME280;37380;45.186;9.792;2022-09-09T14:33:15;100505.63;;;27.03;74.95
51297;BME280;37380;45.186;9.792;2022-09-09T14:35:43;100478.22;;;26.95;74.11
51297;BME280;37380;45.186;9.792;2022-09-09T14:38:17;100486.66;;;27.08;73.14
51297;BME280;37380;45.186;9.792;2022-09-09T14:41:16;100501.78;;;27.36;72.51
51297;BME280;37380;45.186;9.792;2022-09-09T14:43:44;100505.63;;;27.52;72.72
51297;BME280;37380;45.186;9.792;2022-09-09T14:46:14;100499.06;;;27.83;67.87
51297;BME280;37380;45.186;9.792;2022-09-09T14:48:41;100503.69;;;27.79;67.62
51297;BME280;37380;45.186;9.792;2022-09-09T14:54:10;100479.59;;;27.54;65.80
51297;BME280;37380;45.186;9.792;2022-09-09T14:56:37;100502.09;;;27.97;67.73
51297;BME280;37380;45.186;9.792;2022-09-09T14:59:11;100486.00;;;27.73;70.30
51297;BME280;37380;45.186;9.792;2022-09-09T15:02:12;100442.34;;;27.68;70.00
51297;BME280;37380;45.186;9.792;2022-09-09T15:05:13;100480.59;;;27.97;69.25
51297;BME280;37380;45.186;9.792;2022-09-09T15:08:07;100458.81;;;27.59;69.58
51297;BME280;37380;45.186;9.792;2022-09-09T15:10:41;100497.84;;;27.91;71.04
51297;BME280;37380;45.186;9.792;2022-09-09T15:13:35;100445.84;;;27.70;68.11
51297;BME280;37380;45.186;9.792;2022-09-09T15:16:09;100415.63;;;27.65;65.90
51297;BME280;37380;45.186;9.792;2022-09-09T15:18:36;100459.06;;;27.75;65.46
51297;BME280;37380;45.186;9.792;2022-09-09T15:21:03;100489.03;;;27.88;65.41
51297;BME280;37380;45.186;9.792;2022-09-09T15:23:32;100488.41;;;28.03;66.23
51297;BME280;37380;45.186;9.792;2022-09-09T15:25:59;100499.09;;;28.05;66.94
51297;BME280;37380;45.186;9.792;2022-09-09T15:28:27;100478.22;;;28.11;65.35
51297;BME280;37380;45.186;9.792;2022-09-09T15:30:54;100488.84;;;28.14;64.31
51297;BME280;37380;45.186;9.792;2022-09-09T15:33:28;100474.47;;;27.93;65.29
51297;BME280;37380;45.186;9.792;2022-09-09T15:37:05;100486.78;;;27.99;67.78
51297;BME280;37380;45.186;9.792;2022-09-09T15:39:56;100441.66;;;27.41;70.38
51297;BME280;37380;45.186;9.792;2022-09-09T15:42:25;100439.91;;;27.40;69.15
51297;BME280;37380;45.186;9.792;2022-09-09T15:44:52;100423.25;;;27.07;71.64
51297;BME280;37380;45.186;9.792;2022-09-09T15:47:21;100459.81;;;27.35;69.25
51297;BME280;37380;45.186;9.792;2022-09-09T15:49:55;100440.44;;;27.26;68.57
51297;BME280;37380;45.186;9.792;2022-09-09T15:52:49;100413.00;;;26.95;69.02
51297;BME280;37380;45.186;9.792;2022-09-09T15:55:16;100452.53;;;27.13;68.85
51297;BME280;37380;45.186;9.792;2022-09-09T15:57:51;100453.47;;;27.12;69.42
51297;BME280;37380;45.186;9.792;2022-09-09T16:00:52;100445.22;;;27.18;69.69